Flight Number: AVA1248 Duration: 1:30
Departure: Stavanger Sola (ENZV) at 13:30 Distance: 540.883 Nm
Arrival: Frankfurt am Main (EDDF) at 15:00 Equipment: B737

Weather Information
Stavanger / Sola, Norway (ENZV) 58-53N 005-38E 9M Feb 19, 2020 - 02:20 AM EST / 2020.02.19 0720 UTC
Wind: from the SSE (150 degrees) at 6 MPH (5 KT):0
Visibility: greater than 7 mile(s):0
Sky conditions: partly cloudy Weather: Towering cumulus clouds observed Temperature: 35 F (2 C)
Windchill: 30 F (-1 C):1 Dew Point: 33 F (1 C) Relative Humidity: 93% Pressure (altimeter): 29.53 in. Hg (1000 hPa)
ob: ENZV 190720Z 15005KT 9999 FEW025TCU SCT050 02/01 Q1000 NOSIG cycle: 7
Sunrise: 07:05 Sunset: 16:37 (UTC)

Frankfurt / M-Flughafen, Germany (EDDF) 50-03N 008-36E 113M Feb 19, 2020 - 02:20 AM EST / 2020.02.19 0720 UTC
Wind: from the WSW (240 degrees) at 16 MPH (14 KT):0
Visibility: greater than 7 mile(s):0
Sky conditions: partly cloudy Weather: light rain showers; Cumulonimbus clouds observed Temperature: 42 F (6 C) Dew Point: 35 F (2 C) Relative Humidity: 75% Pressure (altimeter): 30.03 in. Hg (1017 hPa)
ob: EDDF 190720Z 24014KT 9999 -SHRA FEW013 FEW020CB SCT028 06/02 Q1017 TEMPO 25015G30KT 4000 SHGSRA BKN014 cycle: 7
Sunrise: 06:32 Sunset: 16:46 (UTC)

TAF:2020/02/19 06:28 TAF EDDF 190500Z 1906/2012 24012KT 9999 BKN030 TEMPO 1906/1911 26015G30KT SHRA BKN020CB BECMG 1912/1914 SCT035 BECMG 1922/2002 20007KT BKN030 TEMPO 2002/2009 RA BKN012

Previous Pireps for this route
Date Aircraft Flight time Fuel used Landing rate On time
2015-04-25B73702.0039056-271Yes
2015-04-25B7371.42108420Charter
2017-10-08B7373.0778390Charter
(pireps marked green are flown by you)

Route map